Terminal Aerodrome Forecast
Issued by NWS Charleston, SC

Home | Current Version | Previous Version | Text Only | Print | Product List | Glossary On
Versions: 1 2 3 4 5 6 7 8 9 10 11 12 13 14 15 16 17 18 19 20
000
FTUS42 KCHS 012320
TAFSAV
TAF
KSAV 012320Z 0200/0224 36005KT P6SM OVC005
     FM020200 36003KT 5SM -DZ BR OVC004
     FM020700 00000KT 3/4SM -DZ BR OVC002
     FM021500 31004KT 5SM BR SCT002 OVC008
     FM021700 30008KT P6SM BKN015=

USA.gov is the U.S. government's official web portal to all federal, state and local government web resources and services.